Galena, Nevada Weather observations

Data are for 10 minute period ending at time listed.
 Day   Time    Ave.   Ave.  Ave.  Vector   Max.   Total    Solar   
  of    of     Air    Rel.  Wind   Wind    Wind  Precip.   Rad.    
Year   Day     Temp.  Hum.  Speed  Dir.    Gust                    
2014   (PST)    F      %     mph   deg.    mph     in.     W/m2    
------------------------------------------------------------------- 
 108   23:00   50.0    49    4.0   271      8.0    0.01       0  
 109    0:00   50.0    47    4.0   240     10.0    0.01       0  
 109    1:00   46.0    56    4.0   282      7.0    0.01       0  
 109    2:00   46.0    59    4.0   335      7.0    0.01       0  
 109    3:00   41.0    66    3.0   314      9.0    0.01       0  
 109    4:00   41.0    72    4.0   348      6.0    0.01       0  
 109    5:00   40.0    73    5.0   309      8.0    0.01       0  
 109    6:00   40.0    76    2.0   312      8.0    0.01       7  
 109    7:00   54.0    57    1.0     7      9.0    0.01     119  
 109    8:00   57.0    45    3.0    87      8.0    0.01     352  
 109    9:00   60.0    37   10.0   117     17.0    0.01     564  
 109   10:00   60.0    29    6.0    20     18.0    0.01     675  
 109   11:00   64.0    17   11.0   276     21.0    0.01     700  
 109   12:00   66.0    21    9.0   100     29.0    0.01     873  
 109   13:00   70.0    15    5.0   233     22.0    0.01     939  
 109   14:00   66.0    20   13.0   165     26.0    0.01     868  
 109   15:00   67.0    21   13.0   148     30.0    0.01     720  
 109   16:00   64.0    21   13.0   172     27.0    0.01     614  
 109   17:00   61.0    19    8.0   257     23.0    0.01     389  
 109   18:00   60.0    18    6.0   278     27.0    0.01     167  
 109   19:00   55.0    21    9.0   279     19.0    0.01      32  
 109   20:00   55.0    20   12.0   270     24.0    0.01       0  
 109   21:00   50.0    20    2.0   237     24.0    0.01       0  
 109   22:00   43.0    28    3.0   300      7.0    0.01       0  

Return to Galena, Nevada graphs page.


Western Regional Climate Center,wrcc@dri.edu